Northdale, Florida
Current Conditions -  °F | °C
As of 4:53 AM on Friday 28 Nov 2014 (Local Time) from KTPA Reporting Station
Clear Clear  
Wind Chill: 41°   Ceiling: Unl
Heat Index: 46°   Visibility: 10mi
Dew Point: 33°   Wind: 10mph
Humidity: 61%   Direction: 20°NNE
Pressure: 30.3"   Gusts: NA
Location:  28.0595°N, 82.6106°W
Report Text: KTPA 280953Z 02009KT 10SM CLR 08/01 A3030 RMK AO2 SLP262 T00780006
Loading
Personal Weather Stations






























Interactive Weather Map New forecast layout! Learn more

10-Day Weather Forecast

Advertisements
Track Severe Weather on mobile